Sunrise Beach, Washington
Current Conditions -  °F | °C
As of 9:53 PM on Thursday 27 Nov 2014 (Local Time) from KTIW Reporting Station
Overcast Overcast  
Wind Chill: 53°   Ceiling: 2600
Heat Index: 53°   Visibility: 10mi
Dew Point: 50°   Wind: 14mph
Humidity: 89%   Direction: 190°S
Pressure: 29.73"   Gusts: NA
Location:  47.2986°N, 122.616°W
Report Text: KTIW 280553Z AUTO 19012KT 10SM SCT014 OVC026 12/10 A2973 RMK AO2 PK WND 18027/0458 RAB21E53 SLP067 P0000 60008 T01170100 10122 20111 58014 $
Loading
Personal Weather Stations






























Interactive Weather Map New forecast layout! Learn more

10-Day Weather Forecast

Advertisements
Track Severe Weather on mobile